sensor_id;sensor_type;location;lat;lon;timestamp;pressure;altitude;pressure_sealevel;temperature;humidity
13974;BME280;7060;43.770;4.008;2022-08-19T00:01:58;100816.63;;;22.10;50.65
13974;BME280;7060;43.770;4.008;2022-08-19T00:04:30;100777.00;;;21.89;50.89
13974;BME280;7060;43.770;4.008;2022-08-19T00:06:59;100812.91;;;22.04;50.65
13974;BME280;7060;43.770;4.008;2022-08-19T00:09:28;100770.97;;;21.74;50.94
13974;BME280;7060;43.770;4.008;2022-08-19T00:11:57;100815.84;;;22.03;51.12
13974;BME280;7060;43.770;4.008;2022-08-19T00:14:27;100815.00;;;22.02;51.21
13974;BME280;7060;43.770;4.008;2022-08-19T00:16:58;100817.56;;;21.97;51.45
13974;BME280;7060;43.770;4.008;2022-08-19T00:19:29;100815.50;;;21.92;50.96
13974;BME280;7060;43.770;4.008;2022-08-19T00:21:57;100815.53;;;21.86;51.42
13974;BME280;7060;43.770;4.008;2022-08-19T00:24:26;100822.63;;;21.87;52.02
13974;BME280;7060;43.770;4.008;2022-08-19T00:26:55;100805.72;;;21.78;51.55
13974;BME280;7060;43.770;4.008;2022-08-19T00:29:45;100814.69;;;21.85;51.60
13974;BME280;7060;43.770;4.008;2022-08-19T00:32:19;100818.25;;;21.86;51.71
13974;BME280;7060;43.770;4.008;2022-08-19T00:34:51;100807.97;;;21.88;52.08
13974;BME280;7060;43.770;4.008;2022-08-19T00:37:20;100811.75;;;21.87;51.88
13974;BME280;7060;43.770;4.008;2022-08-19T00:39:49;100814.03;;;21.90;52.56
13974;BME280;7060;43.770;4.008;2022-08-19T00:42:19;100807.53;;;21.91;52.50
13974;BME280;7060;43.770;4.008;2022-08-19T00:44:48;100769.34;;;21.66;52.31
13974;BME280;7060;43.770;4.008;2022-08-19T00:47:17;100800.25;;;21.85;52.52
13974;BME280;7060;43.770;4.008;2022-08-19T00:49:49;100804.44;;;21.81;52.83
13974;BME280;7060;43.770;4.008;2022-08-19T00:52:23;100642.75;;;20.87;52.60
13974;BME280;7060;43.770;4.008;2022-08-19T00:54:56;100794.59;;;21.86;52.53
13974;BME280;7060;43.770;4.008;2022-08-19T00:57:28;100795.41;;;21.87;52.62
13974;BME280;7060;43.770;4.008;2022-08-19T00:59:59;100789.16;;;21.86;52.21
13974;BME280;7060;43.770;4.008;2022-08-19T01:02:30;100784.53;;;21.87;51.85
13974;BME280;7060;43.770;4.008;2022-08-19T01:04:59;100785.59;;;21.86;51.90
13974;BME280;7060;43.770;4.008;2022-08-19T01:07:29;100780.75;;;21.88;51.72
13974;BME280;7060;43.770;4.008;2022-08-19T01:10:06;100783.72;;;21.80;51.52
13974;BME280;7060;43.770;4.008;2022-08-19T01:12:36;100756.97;;;21.70;51.86
13974;BME280;7060;43.770;4.008;2022-08-19T01:15:06;100750.53;;;21.65;51.83
13974;BME280;7060;43.770;4.008;2022-08-19T01:17:38;100756.59;;;21.67;51.89
13974;BME280;7060;43.770;4.008;2022-08-19T01:20:10;100778.69;;;21.83;51.67
13974;BME280;7060;43.770;4.008;2022-08-19T01:22:43;100608.47;;;20.80;52.16
13974;BME280;7060;43.770;4.008;2022-08-19T01:25:13;100781.22;;;21.78;52.40
13974;BME280;7060;43.770;4.008;2022-08-19T01:27:46;100781.41;;;21.77;52.31
13974;BME280;7060;43.770;4.008;2022-08-19T01:30:21;100612.88;;;20.74;52.64
13974;BME280;7060;43.770;4.008;2022-08-19T01:32:50;100777.66;;;21.71;52.85
13974;BME280;7060;43.770;4.008;2022-08-19T01:35:20;100782.06;;;21.72;52.93
13974;BME280;7060;43.770;4.008;2022-08-19T01:37:54;100607.66;;;20.73;52.97
13974;BME280;7060;43.770;4.008;2022-08-19T01:40:26;100647.72;;;20.90;52.55
13974;BME280;7060;43.770;4.008;2022-08-19T01:42:57;100782.53;;;21.69;53.10
13974;BME280;7060;43.770;4.008;2022-08-19T01:45:27;100785.84;;;21.71;52.99
13974;BME280;7060;43.770;4.008;2022-08-19T01:47:56;100795.06;;;21.70;53.20
13974;BME280;7060;43.770;4.008;2022-08-19T01:50:29;100801.31;;;21.71;53.38
13974;BME280;7060;43.770;4.008;2022-08-19T01:53:00;100800.28;;;21.72;53.39
13974;BME280;7060;43.770;4.008;2022-08-19T01:55:34;100799.28;;;21.66;53.66
13974;BME280;7060;43.770;4.008;2022-08-19T01:58:08;100792.19;;;21.58;54.08
13974;BME280;7060;43.770;4.008;2022-08-19T02:00:38;100797.19;;;21.61;53.61
13974;BME280;7060;43.770;4.008;2022-08-19T02:03:07;100796.38;;;21.61;53.50
13974;BME280;7060;43.770;4.008;2022-08-19T02:05:37;100792.81;;;21.60;53.20
13974;BME280;7060;43.770;4.008;2022-08-19T02:08:07;100795.53;;;21.60;53.45
13974;BME280;7060;43.770;4.008;2022-08-19T02:10:38;100808.09;;;21.61;53.78
13974;BME280;7060;43.770;4.008;2022-08-19T02:13:07;100808.91;;;21.62;53.92
13974;BME280;7060;43.770;4.008;2022-08-19T02:15:36;100792.81;;;21.60;53.79
13974;BME280;7060;43.770;4.008;2022-08-19T02:18:05;100797.63;;;21.58;53.83
13974;BME280;7060;43.770;4.008;2022-08-19T02:20:35;100780.53;;;21.45;53.69
13974;BME280;7060;43.770;4.008;2022-08-19T02:23:04;100808.31;;;21.53;54.04
13974;BME280;7060;43.770;4.008;2022-08-19T02:25:45;100773.47;;;21.31;53.91
13974;BME280;7060;43.770;4.008;2022-08-19T02:28:14;100793.91;;;21.46;54.32
13974;BME280;7060;43.770;4.008;2022-08-19T02:30:46;100770.56;;;21.25;54.43
13974;BME280;7060;43.770;4.008;2022-08-19T02:33:15;100798.97;;;21.43;54.64
13974;BME280;7060;43.770;4.008;2022-08-19T02:35:45;100796.47;;;21.41;54.66
13974;BME280;7060;43.770;4.008;2022-08-19T02:38:14;100796.28;;;21.36;54.38
13974;BME280;7060;43.770;4.008;2022-08-19T02:40:57;100796.88;;;21.38;55.10
13974;BME280;7060;43.770;4.008;2022-08-19T02:43:26;100805.47;;;21.35;55.05
13974;BME280;7060;43.770;4.008;2022-08-19T02:45:59;100801.50;;;21.31;55.11
13974;BME280;7060;43.770;4.008;2022-08-19T02:48:28;100813.63;;;21.35;54.98
13974;BME280;7060;43.770;4.008;2022-08-19T02:50:57;100804.84;;;21.33;54.92
13974;BME280;7060;43.770;4.008;2022-08-19T02:53:27;100691.69;;;20.61;54.89
13974;BME280;7060;43.770;4.008;2022-08-19T02:55:57;100813.00;;;21.33;54.78
13974;BME280;7060;43.770;4.008;2022-08-19T02:58:25;100814.28;;;21.31;54.67
13974;BME280;7060;43.770;4.008;2022-08-19T03:00:56;100785.28;;;21.11;55.16
13974;BME280;7060;43.770;4.008;2022-08-19T03:03:25;100811.13;;;21.27;55.08
13974;BME280;7060;43.770;4.008;2022-08-19T03:06:04;100818.88;;;21.30;54.72
13974;BME280;7060;43.770;4.008;2022-08-19T03:08:32;100817.19;;;21.29;55.09
13974;BME280;7060;43.770;4.008;2022-08-19T03:11:02;100818.88;;;21.30;55.38
13974;BME280;7060;43.770;4.008;2022-08-19T03:13:32;100825.34;;;21.29;55.70
13974;BME280;7060;43.770;4.008;2022-08-19T03:16:04;100821.19;;;21.26;56.12
13974;BME280;7060;43.770;4.008;2022-08-19T03:18:32;100821.63;;;21.17;55.84
13974;BME280;7060;43.770;4.008;2022-08-19T03:21:01;100828.50;;;21.19;55.37
13974;BME280;7060;43.770;4.008;2022-08-19T03:23:29;100824.75;;;21.20;55.32
13974;BME280;7060;43.770;4.008;2022-08-19T03:25:57;100829.13;;;21.21;55.59
13974;BME280;7060;43.770;4.008;2022-08-19T03:28:44;100687.81;;;20.31;55.55
13974;BME280;7060;43.770;4.008;2022-08-19T03:31:24;100832.94;;;21.14;55.39
13974;BME280;7060;43.770;4.008;2022-08-19T03:34:15;100843.81;;;21.14;54.73
13974;BME280;7060;43.770;4.008;2022-08-19T03:36:45;100842.09;;;21.19;54.30
13974;BME280;7060;43.770;4.008;2022-08-19T03:39:14;100847.53;;;21.26;53.98
13974;BME280;7060;43.770;4.008;2022-08-19T03:41:44;100813.72;;;21.09;53.89
13974;BME280;7060;43.770;4.008;2022-08-19T03:44:17;100820.34;;;21.19;53.74
13974;BME280;7060;43.770;4.008;2022-08-19T03:46:49;100864.88;;;21.38;53.44
13974;BME280;7060;43.770;4.008;2022-08-19T03:49:19;100854.63;;;21.40;53.19
13974;BME280;7060;43.770;4.008;2022-08-19T03:51:55;100861.91;;;21.46;52.51
13974;BME280;7060;43.770;4.008;2022-08-19T03:54:24;100865.03;;;21.50;52.61
13974;BME280;7060;43.770;4.008;2022-08-19T03:56:54;100880.09;;;21.52;52.17
13974;BME280;7060;43.770;4.008;2022-08-19T03:59:26;100840.81;;;21.35;51.96
13974;BME280;7060;43.770;4.008;2022-08-19T04:01:55;100883.03;;;21.57;52.54
13974;BME280;7060;43.770;4.008;2022-08-19T04:06:55;100885.75;;;21.57;52.38
13974;BME280;7060;43.770;4.008;2022-08-19T04:09:24;100867.97;;;21.48;52.23
13974;BME280;7060;43.770;4.008;2022-08-19T04:11:55;100877.16;;;21.60;52.05
13974;BME280;7060;43.770;4.008;2022-08-19T04:14:28;100852.13;;;21.39;52.39
13974;BME280;7060;43.770;4.008;2022-08-19T04:16:58;100890.13;;;21.58;52.16
13974;BME280;7060;43.770;4.008;2022-08-19T04:19:29;100890.13;;;21.58;52.03
13974;BME280;7060;43.770;4.008;2022-08-19T04:21:57;100876.19;;;21.42;51.79
13974;BME280;7060;43.770;4.008;2022-08-19T04:24:26;100901.22;;;21.63;51.89
13974;BME280;7060;43.770;4.008;2022-08-19T04:26:54;100899.13;;;21.66;51.95
13974;BME280;7060;43.770;4.008;2022-08-19T04:29:24;100903.72;;;21.65;51.83
13974;BME280;7060;43.770;4.008;2022-08-19T04:31:56;100906.22;;;21.67;51.38
13974;BME280;7060;43.770;4.008;2022-08-19T04:34:28;100872.56;;;21.48;51.60
13974;BME280;7060;43.770;4.008;2022-08-19T04:36:58;100901.19;;;21.70;51.53
13974;BME280;7060;43.770;4.008;2022-08-19T04:39:28;100901.41;;;21.69;51.40
13974;BME280;7060;43.770;4.008;2022-08-19T04:42:11;100901.41;;;21.69;51.43
13974;BME280;7060;43.770;4.008;2022-08-19T04:44:58;100890.94;;;21.66;51.26
13974;BME280;7060;43.770;4.008;2022-08-19T04:47:28;100903.50;;;21.67;51.19
13974;BME280;7060;43.770;4.008;2022-08-19T04:50:19;100899.75;;;21.68;51.54
13974;BME280;7060;43.770;4.008;2022-08-19T04:52:50;100897.00;;;21.68;51.01
13974;BME280;7060;43.770;4.008;2022-08-19T04:55:21;100890.31;;;21.70;50.57
13974;BME280;7060;43.770;4.008;2022-08-19T04:57:49;100899.69;;;21.74;50.20
13974;BME280;7060;43.770;4.008;2022-08-19T05:00:18;100907.25;;;21.79;50.51
13974;BME280;7060;43.770;4.008;2022-08-19T05:02:47;100910.59;;;21.81;50.35
13974;BME280;7060;43.770;4.008;2022-08-19T05:05:16;100905.16;;;21.81;50.49
13974;BME280;7060;43.770;4.008;2022-08-19T05:07:44;100909.53;;;21.82;50.34
13974;BME280;7060;43.770;4.008;2022-08-19T05:10:13;100911.63;;;21.80;50.60
13974;BME280;7060;43.770;4.008;2022-08-19T05:12:41;100916.88;;;21.81;50.36
13974;BME280;7060;43.770;4.008;2022-08-19T05:15:10;100917.72;;;21.82;50.04
13974;BME280;7060;43.770;4.008;2022-08-19T05:17:38;100917.28;;;21.85;49.93
13974;BME280;7060;43.770;4.008;2022-08-19T05:20:29;100915.19;;;21.87;49.81
13974;BME280;7060;43.770;4.008;2022-08-19T05:23:15;100926.69;;;21.89;49.64
13974;BME280;7060;43.770;4.008;2022-08-19T05:25:49;100883.78;;;21.71;49.90
13974;BME280;7060;43.770;4.008;2022-08-19T05:28:20;100927.66;;;22.01;49.67
13974;BME280;7060;43.770;4.008;2022-08-19T05:30:48;100925.78;;;22.02;50.13
13974;BME280;7060;43.770;4.008;2022-08-19T05:33:19;100921.59;;;21.99;50.37
13974;BME280;7060;43.770;4.008;2022-08-19T05:35:50;100927.88;;;22.00;50.35
13974;BME280;7060;43.770;4.008;2022-08-19T05:38:19;100932.50;;;21.99;49.92
13974;BME280;7060;43.770;4.008;2022-08-19T05:40:47;100925.78;;;22.02;49.57
13974;BME280;7060;43.770;4.008;2022-08-19T05:43:16;100929.53;;;22.07;49.88
13974;BME280;7060;43.770;4.008;2022-08-19T05:45:44;100917.56;;;22.15;49.36
13974;BME280;7060;43.770;4.008;2022-08-19T05:48:14;100912.53;;;22.18;49.05
13974;BME280;7060;43.770;4.008;2022-08-19T05:50:44;100920.47;;;22.20;49.20
13974;BME280;7060;43.770;4.008;2022-08-19T05:53:14;100928.66;;;22.20;49.26
13974;BME280;7060;43.770;4.008;2022-08-19T05:55:43;100928.88;;;22.18;49.47
13974;BME280;7060;43.770;4.008;2022-08-19T05:58:11;100934.31;;;22.18;49.53
13974;BME280;7060;43.770;4.008;2022-08-19T06:00:42;100936.16;;;22.24;49.31
13974;BME280;7060;43.770;4.008;2022-08-19T06:03:11;100926.66;;;22.34;48.86
13974;BME280;7060;43.770;4.008;2022-08-19T06:05:40;100935.03;;;22.39;48.81
13974;BME280;7060;43.770;4.008;2022-08-19T06:08:20;100935.44;;;22.42;48.61
13974;BME280;7060;43.770;4.008;2022-08-19T06:11:18;100895.06;;;22.26;48.37
13974;BME280;7060;43.770;4.008;2022-08-19T06:13:50;100928.69;;;22.51;49.61
13974;BME280;7060;43.770;4.008;2022-08-19T06:16:26;100912.50;;;22.56;48.64
13974;BME280;7060;43.770;4.008;2022-08-19T06:18:56;100913.69;;;22.67;48.95
13974;BME280;7060;43.770;4.008;2022-08-19T06:21:26;100913.44;;;22.75;48.77
13974;BME280;7060;43.770;4.008;2022-08-19T06:23:58;100923.78;;;22.91;48.71
13974;BME280;7060;43.770;4.008;2022-08-19T06:26:27;100903.63;;;23.17;47.82
13974;BME280;7060;43.770;4.008;2022-08-19T06:28:56;100911.56;;;23.62;47.40
13974;BME280;7060;43.770;4.008;2022-08-19T06:31:26;100912.81;;;24.03;46.39
13974;BME280;7060;43.770;4.008;2022-08-19T06:33:55;100923.59;;;24.57;45.83
13974;BME280;7060;43.770;4.008;2022-08-19T06:36:27;100895.50;;;24.92;45.20
13974;BME280;7060;43.770;4.008;2022-08-19T06:39:01;100929.06;;;25.57;43.93
13974;BME280;7060;43.770;4.008;2022-08-19T06:41:31;100918.75;;;25.88;42.95
13974;BME280;7060;43.770;4.008;2022-08-19T06:44:12;100927.63;;;26.18;42.31
13974;BME280;7060;43.770;4.008;2022-08-19T06:46:43;100930.63;;;26.45;41.58
13974;BME280;7060;43.770;4.008;2022-08-19T06:49:21;100935.34;;;26.78;41.15
13974;BME280;7060;43.770;4.008;2022-08-19T06:51:50;100931.38;;;27.03;40.32
13974;BME280;7060;43.770;4.008;2022-08-19T06:54:21;100937.09;;;27.18;39.81
13974;BME280;7060;43.770;4.008;2022-08-19T06:56:56;100935.91;;;27.47;39.27
13974;BME280;7060;43.770;4.008;2022-08-19T06:59:25;100924.41;;;27.67;38.79
13974;BME280;7060;43.770;4.008;2022-08-19T07:01:56;100926.59;;;27.87;38.58
13974;BME280;7060;43.770;4.008;2022-08-19T07:04:28;100905.78;;;27.91;38.08
13974;BME280;7060;43.770;4.008;2022-08-19T07:07:01;100943.06;;;28.09;37.09
13974;BME280;7060;43.770;4.008;2022-08-19T07:09:48;100925.69;;;28.03;36.72
13974;BME280;7060;43.770;4.008;2022-08-19T07:12:26;100949.34;;;28.26;36.48
13974;BME280;7060;43.770;4.008;2022-08-19T07:14:56;100955.41;;;28.50;35.83
13974;BME280;7060;43.770;4.008;2022-08-19T07:17:25;100944.03;;;28.68;35.75
13974;BME280;7060;43.770;4.008;2022-08-19T07:19:54;100954.47;;;28.98;35.46
13974;BME280;7060;43.770;4.008;2022-08-19T07:22:30;100958.25;;;29.19;35.93
13974;BME280;7060;43.770;4.008;2022-08-19T07:25:02;100951.75;;;29.35;34.73
13974;BME280;7060;43.770;4.008;2022-08-19T07:27:31;100950.94;;;29.40;34.99
13974;BME280;7060;43.770;4.008;2022-08-19T07:30:01;100939.53;;;29.58;34.24
13974;BME280;7060;43.770;4.008;2022-08-19T07:32:29;100954.28;;;29.94;34.00
13974;BME280;7060;43.770;4.008;2022-08-19T07:34:58;100957.66;;;30.01;34.04
13974;BME280;7060;43.770;4.008;2022-08-19T07:37:27;100943.69;;;30.18;32.58
13974;BME280;7060;43.770;4.008;2022-08-19T07:39:59;100925.50;;;30.27;33.44
13974;BME280;7060;43.770;4.008;2022-08-19T07:42:29;100951.53;;;30.67;32.10
13974;BME280;7060;43.770;4.008;2022-08-19T07:44:58;100955.34;;;30.45;32.80
13974;BME280;7060;43.770;4.008;2022-08-19T07:47:26;100947.28;;;30.23;33.25
13974;BME280;7060;43.770;4.008;2022-08-19T07:50:15;100960.38;;;29.91;33.33
13974;BME280;7060;43.770;4.008;2022-08-19T07:52:45;100960.22;;;29.66;33.67
13974;BME280;7060;43.770;4.008;2022-08-19T07:55:16;100973.28;;;29.43;34.05
13974;BME280;7060;43.770;4.008;2022-08-19T07:58:07;100964.09;;;29.27;33.85
13974;BME280;7060;43.770;4.008;2022-08-19T08:00:35;100968.69;;;29.17;34.28
13974;BME280;7060;43.770;4.008;2022-08-19T08:03:03;100970.56;;;29.11;34.84
13974;BME280;7060;43.770;4.008;2022-08-19T08:05:32;100967.16;;;28.99;34.74
13974;BME280;7060;43.770;4.008;2022-08-19T08:08:17;100970.81;;;29.05;34.90
13974;BME280;7060;43.770;4.008;2022-08-19T08:11:10;100972.16;;;29.02;35.17
13974;BME280;7060;43.770;4.008;2022-08-19T08:13:43;100973.00;;;29.03;34.92
13974;BME280;7060;43.770;4.008;2022-08-19T08:16:11;100977.84;;;28.95;35.83
13974;BME280;7060;43.770;4.008;2022-08-19T08:18:40;100975.75;;;28.76;34.28
13974;BME280;7060;43.770;4.008;2022-08-19T08:21:18;100979.16;;;28.61;33.99
13974;BME280;7060;43.770;4.008;2022-08-19T08:23:47;100996.66;;;28.50;34.27
13974;BME280;7060;43.770;4.008;2022-08-19T08:26:19;100991.88;;;28.40;34.10
13974;BME280;7060;43.770;4.008;2022-08-19T08:28:48;100999.69;;;28.31;34.81
13974;BME280;7060;43.770;4.008;2022-08-19T08:31:17;100993.44;;;28.14;35.21
13974;BME280;7060;43.770;4.008;2022-08-19T08:33:47;100996.78;;;28.16;35.08
13974;BME280;7060;43.770;4.008;2022-08-19T08:36:15;101004.94;;;28.11;35.70
13974;BME280;7060;43.770;4.008;2022-08-19T08:38:44;101011.78;;;28.09;35.55
13974;BME280;7060;43.770;4.008;2022-08-19T08:41:18;100993.44;;;27.92;35.88
13974;BME280;7060;43.770;4.008;2022-08-19T08:43:52;101005.97;;;28.05;35.75
13974;BME280;7060;43.770;4.008;2022-08-19T08:46:25;100992.53;;;27.87;36.24
13974;BME280;7060;43.770;4.008;2022-08-19T08:49:03;101014.03;;;28.12;35.82
13974;BME280;7060;43.770;4.008;2022-08-19T08:51:38;101018.44;;;28.13;35.48
13974;BME280;7060;43.770;4.008;2022-08-19T08:54:18;101022.69;;;28.20;35.52
13974;BME280;7060;43.770;4.008;2022-08-19T08:56:49;101029.09;;;28.31;35.97
13974;BME280;7060;43.770;4.008;2022-08-19T08:59:25;100993.59;;;28.24;35.65
13974;BME280;7060;43.770;4.008;2022-08-19T09:01:59;101025.09;;;28.39;35.56
13974;BME280;7060;43.770;4.008;2022-08-19T09:04:28;101018.91;;;28.48;35.19
13974;BME280;7060;43.770;4.008;2022-08-19T09:07:08;101018.97;;;28.53;34.66
13974;BME280;7060;43.770;4.008;2022-08-19T09:10:05;101021.19;;;28.56;35.52
13974;BME280;7060;43.770;4.008;2022-08-19T09:12:45;101025.91;;;28.61;34.73
13974;BME280;7060;43.770;4.008;2022-08-19T09:15:22;101023.34;;;28.76;34.96
13974;BME280;7060;43.770;4.008;2022-08-19T09:18:03;101023.44;;;28.86;34.96
13974;BME280;7060;43.770;4.008;2022-08-19T09:20:33;101013.50;;;28.85;34.76
13974;BME280;7060;43.770;4.008;2022-08-19T09:23:07;101033.09;;;28.89;34.31
13974;BME280;7060;43.770;4.008;2022-08-19T09:25:37;101038.06;;;28.92;34.93
13974;BME280;7060;43.770;4.008;2022-08-19T09:28:07;101019.78;;;29.03;34.32
13974;BME280;7060;43.770;4.008;2022-08-19T09:30:54;101025.88;;;29.10;33.94
13974;BME280;7060;43.770;4.008;2022-08-19T09:33:22;101018.56;;;29.20;34.59
13974;BME280;7060;43.770;4.008;2022-08-19T09:36:02;101024.41;;;29.29;34.23
13974;BME280;7060;43.770;4.008;2022-08-19T09:38:35;101032.47;;;29.36;33.41
13974;BME280;7060;43.770;4.008;2022-08-19T09:41:12;100993.19;;;29.18;33.45
13974;BME280;7060;43.770;4.008;2022-08-19T09:43:43;101021.13;;;29.32;33.79
13974;BME280;7060;43.770;4.008;2022-08-19T09:46:15;101018.41;;;29.37;33.47
13974;BME280;7060;43.770;4.008;2022-08-19T09:48:49;101017.03;;;29.40;34.14
13974;BME280;7060;43.770;4.008;2022-08-19T09:51:21;101018.97;;;29.39;33.64
13974;BME280;7060;43.770;4.008;2022-08-19T09:53:51;101028.06;;;29.40;33.31
13974;BME280;7060;43.770;4.008;2022-08-19T09:56:22;101016.22;;;29.39;33.70
13974;BME280;7060;43.770;4.008;2022-08-19T09:58:50;101014.41;;;29.55;33.50
13974;BME280;7060;43.770;4.008;2022-08-19T10:01:26;101011.75;;;29.65;33.13
13974;BME280;7060;43.770;4.008;2022-08-19T10:04:00;100944.25;;;29.25;33.17
13974;BME280;7060;43.770;4.008;2022-08-19T10:06:40;101012.34;;;29.72;33.60
13974;BME280;7060;43.770;4.008;2022-08-19T10:09:13;101013.25;;;29.83;33.12
13974;BME280;7060;43.770;4.008;2022-08-19T10:11:52;101010.53;;;29.93;33.23
13974;BME280;7060;43.770;4.008;2022-08-19T10:14:21;101011.66;;;29.97;32.27
13974;BME280;7060;43.770;4.008;2022-08-19T10:16:51;101012.47;;;29.97;32.41
13974;BME280;7060;43.770;4.008;2022-08-19T10:19:20;101003.94;;;29.99;32.25
13974;BME280;7060;43.770;4.008;2022-08-19T10:21:53;101008.38;;;30.00;33.26
13974;BME280;7060;43.770;4.008;2022-08-19T10:24:26;101006.75;;;30.09;32.53
13974;BME280;7060;43.770;4.008;2022-08-19T10:26:56;100993.84;;;30.20;32.62
13974;BME280;7060;43.770;4.008;2022-08-19T10:29:26;100991.44;;;30.34;32.35
13974;BME280;7060;43.770;4.008;2022-08-19T10:32:02;100994.25;;;30.44;31.90
13974;BME280;7060;43.770;4.008;2022-08-19T10:34:36;101005.00;;;30.45;32.53
13974;BME280;7060;43.770;4.008;2022-08-19T10:37:15;100990.94;;;30.52;31.70
13974;BME280;7060;43.770;4.008;2022-08-19T10:39:56;100986.84;;;30.64;31.28
13974;BME280;7060;43.770;4.008;2022-08-19T10:42:25;100992.66;;;30.73;32.03
13974;BME280;7060;43.770;4.008;2022-08-19T10:44:53;100993.25;;;30.90;31.88
13974;BME280;7060;43.770;4.008;2022-08-19T10:47:25;100987.72;;;31.01;30.97
13974;BME280;7060;43.770;4.008;2022-08-19T10:49:57;100992.69;;;31.09;31.28
13974;BME280;7060;43.770;4.008;2022-08-19T10:52:45;100958.72;;;30.68;31.33
13974;BME280;7060;43.770;4.008;2022-08-19T10:55:19;100984.88;;;30.45;31.81
13974;BME280;7060;43.770;4.008;2022-08-19T10:58:10;100980.03;;;30.10;32.63
13974;BME280;7060;43.770;4.008;2022-08-19T11:00:39;100980.47;;;29.91;32.92
13974;BME280;7060;43.770;4.008;2022-08-19T11:03:11;100984.81;;;29.77;33.82
13974;BME280;7060;43.770;4.008;2022-08-19T11:05:39;100979.50;;;29.66;33.79
13974;BME280;7060;43.770;4.008;2022-08-19T11:08:08;100980.28;;;29.56;33.70
13974;BME280;7060;43.770;4.008;2022-08-19T11:10:51;100977.28;;;29.57;33.31
13974;BME280;7060;43.770;4.008;2022-08-19T11:13:28;100984.63;;;29.52;33.73
13974;BME280;7060;43.770;4.008;2022-08-19T11:15:58;100994.25;;;29.49;34.50
13974;BME280;7060;43.770;4.008;2022-08-19T11:18:35;100981.00;;;29.46;34.85
13974;BME280;7060;43.770;4.008;2022-08-19T11:21:08;100973.28;;;29.43;34.31
13974;BME280;7060;43.770;4.008;2022-08-19T11:23:38;100974.94;;;29.44;34.15
13974;BME280;7060;43.770;4.008;2022-08-19T11:26:07;100965.81;;;29.39;34.96
13974;BME280;7060;43.770;4.008;2022-08-19T11:28:36;100960.16;;;29.55;33.83
13974;BME280;7060;43.770;4.008;2022-08-19T11:31:09;100975.44;;;29.73;34.13
13974;BME280;7060;43.770;4.008;2022-08-19T11:33:40;100972.97;;;29.77;33.28
13974;BME280;7060;43.770;4.008;2022-08-19T11:36:14;100958.81;;;29.58;33.15
13974;BME280;7060;43.770;4.008;2022-08-19T11:38:43;100965.47;;;29.62;33.70
13974;BME280;7060;43.770;4.008;2022-08-19T11:41:11;100968.22;;;29.62;33.23
13974;BME280;7060;43.770;4.008;2022-08-19T11:43:39;100966.75;;;29.54;33.19
13974;BME280;7060;43.770;4.008;2022-08-19T11:46:12;100971.66;;;29.47;33.39
13974;BME280;7060;43.770;4.008;2022-08-19T11:48:42;100962.25;;;29.43;33.69
13974;BME280;7060;43.770;4.008;2022-08-19T11:51:12;100843.53;;;28.60;34.45
13974;BME280;7060;43.770;4.008;2022-08-19T11:53:41;100966.97;;;29.48;34.14
13974;BME280;7060;43.770;4.008;2022-08-19T11:56:09;100962.72;;;29.62;33.29
13974;BME280;7060;43.770;4.008;2022-08-19T11:58:38;100979.84;;;29.74;32.75
13974;BME280;7060;43.770;4.008;2022-08-19T12:01:09;100973.78;;;29.77;33.30
13974;BME280;7060;43.770;4.008;2022-08-19T12:03:38;100983.16;;;29.76;33.98
13974;BME280;7060;43.770;4.008;2022-08-19T12:06:11;100859.34;;;29.07;33.32
13974;BME280;7060;43.770;4.008;2022-08-19T12:08:40;100964.22;;;29.95;33.17
13974;BME280;7060;43.770;4.008;2022-08-19T12:11:10;100978.47;;;30.29;32.80
13974;BME280;7060;43.770;4.008;2022-08-19T12:13:39;100979.91;;;30.52;31.55
13974;BME280;7060;43.770;4.008;2022-08-19T12:16:17;100950.66;;;30.51;31.70
13974;BME280;7060;43.770;4.008;2022-08-19T12:18:46;100965.06;;;30.83;31.47
13974;BME280;7060;43.770;4.008;2022-08-19T12:21:17;100968.38;;;31.11;30.60
13974;BME280;7060;43.770;4.008;2022-08-19T12:23:50;100936.34;;;31.15;30.46
13974;BME280;7060;43.770;4.008;2022-08-19T12:26:22;100951.84;;;31.26;30.35
13974;BME280;7060;43.770;4.008;2022-08-19T12:28:52;100915.38;;;31.04;29.92
13974;BME280;7060;43.770;4.008;2022-08-19T12:31:20;100952.94;;;31.20;29.61
13974;BME280;7060;43.770;4.008;2022-08-19T12:33:49;100952.38;;;31.13;29.79
13974;BME280;7060;43.770;4.008;2022-08-19T12:36:20;100955.97;;;30.98;30.45
13974;BME280;7060;43.770;4.008;2022-08-19T12:38:50;100957.34;;;31.01;29.62
13974;BME280;7060;43.770;4.008;2022-08-19T12:41:19;100954.84;;;31.14;30.56
13974;BME280;7060;43.770;4.008;2022-08-19T12:43:49;100958.72;;;31.08;28.68
13974;BME280;7060;43.770;4.008;2022-08-19T12:46:19;100932.50;;;30.90;29.43
13974;BME280;7060;43.770;4.008;2022-08-19T12:48:49;100957.06;;;31.07;29.27
13974;BME280;7060;43.770;4.008;2022-08-19T12:51:23;100966.72;;;31.10;29.06
13974;BME280;7060;43.770;4.008;2022-08-19T12:53:52;100954.56;;;31.01;28.13
13974;BME280;7060;43.770;4.008;2022-08-19T12:56:20;100943.00;;;30.83;27.98
13974;BME280;7060;43.770;4.008;2022-08-19T12:58:49;100959.56;;;30.83;29.11
13974;BME280;7060;43.770;4.008;2022-08-19T13:01:19;100954.59;;;30.85;28.52
13974;BME280;7060;43.770;4.008;2022-08-19T13:03:49;100958.16;;;30.76;28.39
13974;BME280;7060;43.770;4.008;2022-08-19T13:06:19;100961.78;;;30.71;29.52
13974;BME280;7060;43.770;4.008;2022-08-19T13:08:49;100918.63;;;30.40;28.87
13974;BME280;7060;43.770;4.008;2022-08-19T13:11:23;100942.41;;;30.66;28.50
13974;BME280;7060;43.770;4.008;2022-08-19T13:13:52;100947.41;;;30.79;29.28
13974;BME280;7060;43.770;4.008;2022-08-19T13:16:22;100927.25;;;30.89;29.40
13974;BME280;7060;43.770;4.008;2022-08-19T13:18:50;100936.91;;;31.07;28.57
13974;BME280;7060;43.770;4.008;2022-08-19T13:21:20;100917.56;;;31.07;28.11
13974;BME280;7060;43.770;4.008;2022-08-19T13:23:52;100933.91;;;31.23;28.23
13974;BME280;7060;43.770;4.008;2022-08-19T13:26:21;100919.25;;;30.98;28.42
13974;BME280;7060;43.770;4.008;2022-08-19T13:28:49;100938.00;;;31.01;27.72